Time;durP1;ratioP1;P1;durP2;ratioP2;P2;SDS_P1;SDS_P2;PMS_P1;PMS_P2;Temp;Humidity;BMP_temperature;BMP_pressure;BME280_temperature;BME280_humidity;BME280_pressure;Samples;Min_cycle;Max_cycle;Signal;HPM_P1;HPM_P2
2023/07/28 00:00:47;;;;;;;0.00;0.00;;;;;;;17.62;100.00;100515.13;5054113;28;20028;-46
2023/07/28 00:03:13;;;;;;;0.00;0.00;;;;;;;17.65;100.00;100524.72;5053974;28;20102;-46
2023/07/28 00:05:38;;;;;;;0.00;0.00;;;;;;;17.64;100.00;100513.00;5054470;28;20039;-49
2023/07/28 00:08:04;;;;;;;0.00;0.00;;;;;;;17.65;100.00;100511.09;5054303;28;20104;-49
2023/07/28 00:10:29;;;;;;;0.00;0.00;;;;;;;17.65;100.00;100508.38;5053902;28;20025;-47
2023/07/28 00:12:56;;;;;;;0.00;0.00;;;;;;;17.65;100.00;100509.22;5053829;28;20044;-46
2023/07/28 00:15:21;;;;;;;0.00;0.00;;;;;;;17.65;100.00;100506.50;5054061;28;20040;-47
2023/07/28 00:17:46;;;;;;;0.00;0.00;;;;;;;17.66;100.00;100510.84;5053911;28;20017;-48
2023/07/28 00:20:12;;;;;;;0.00;0.00;;;;;;;17.67;100.00;100511.72;5054420;28;20025;-46
2023/07/28 00:22:37;;;;;;;0.00;0.00;;;;;;;17.69;100.00;100510.41;5054230;28;20070;-47
2023/07/28 00:25:03;;;;;;;0.00;0.00;;;;;;;17.72;100.00;100518.09;5054370;28;20075;-46
2023/07/28 00:27:28;;;;;;;0.00;0.00;;;;;;;17.71;100.00;100523.75;5053949;28;20036;-47
2023/07/28 00:29:53;;;;;;;0.00;0.00;;;;;;;17.71;100.00;100519.13;5053814;28;20493;-48
2023/07/28 00:32:19;;;;;;;0.00;0.00;;;;;;;17.75;100.00;100509.44;5053798;28;20300;-45
2023/07/28 00:34:44;;;;;;;0.00;0.00;;;;;;;17.73;100.00;100514.28;5053741;28;20040;-47
2023/07/28 00:37:10;;;;;;;0.00;0.00;;;;;;;17.71;100.00;100510.97;5053564;28;20051;-46
2023/07/28 00:39:35;;;;;;;0.00;0.00;;;;;;;17.72;100.00;100520.81;5053475;28;20382;-49
2023/07/28 00:42:01;;;;;;;0.00;0.00;;;;;;;17.76;100.00;100516.53;5053364;28;20086;-49
2023/07/28 00:44:26;;;;;;;0.00;0.00;;;;;;;17.74;100.00;100515.94;5053283;28;20167;-48
2023/07/28 00:46:51;;;;;;;0.00;0.00;;;;;;;17.73;100.00;100522.47;5053380;28;20395;-43
2023/07/28 00:49:17;;;;;;;0.00;0.00;;;;;;;17.74;100.00;100524.09;5035362;28;20101;-47
2023/07/28 00:51:42;;;;;;;0.00;0.00;;;;;;;17.77;100.00;100520.94;5053597;28;20403;-45
2023/07/28 00:54:08;;;;;;;0.00;0.00;;;;;;;17.78;100.00;100519.84;5054613;28;20126;-45
2023/07/28 00:56:33;;;;;;;0.00;0.00;;;;;;;17.79;100.00;100523.44;5055372;28;20021;-42
2023/07/28 00:58:58;;;;;;;0.00;0.00;;;;;;;17.78;100.00;100508.97;5053400;28;20059;-42
2023/07/28 01:01:25;;;;;;;0.00;0.00;;;;;;;17.81;100.00;100512.31;5054473;28;20102;-45
2023/07/28 01:03:51;;;;;;;0.00;0.00;;;;;;;17.77;100.00;100518.22;5053637;28;20422;-44
2023/07/28 01:06:25;;;;;;;0.00;0.00;;;;;;;17.77;100.00;100518.22;5054195;28;20028;-44
2023/07/28 01:09:03;;;;;;;0.05;0.05;;;;;;;17.81;100.00;100517.75;5054143;28;20071;-45
2023/07/28 01:11:29;;;;;;;0.00;0.00;;;;;;;17.82;100.00;100516.69;5036576;28;20025;-43
2023/07/28 01:13:54;;;;;;;0.00;0.00;;;;;;;17.81;100.00;100525.94;5053687;28;20032;-48
2023/07/28 01:16:19;;;;;;;0.00;0.00;;;;;;;17.84;100.00;100514.56;5053424;28;20550;-46
2023/07/28 01:18:45;;;;;;;0.00;0.00;;;;;;;17.82;100.00;100513.97;5051884;28;20029;-44
2023/07/28 01:21:17;;;;;;;0.00;0.00;;;;;;;17.80;100.00;100513.38;5052917;28;20047;-46
2023/07/28 01:23:43;;;;;;;0.00;0.00;;;;;;;17.80;100.00;100521.53;5051583;28;20487;-46
2023/07/28 01:26:12;;;;;;;0.00;0.00;;;;;;;17.80;100.00;100526.97;5052959;28;20027;-47
2023/07/28 01:28:39;;;;;;;0.00;0.00;;;;;;;17.75;100.00;100520.34;5051479;28;20136;-47
2023/07/28 01:31:06;;;;;;;0.10;0.10;;;;;;;17.75;100.00;100528.50;5052928;28;20490;-44
2023/07/28 01:33:31;;;;;;;0.00;0.00;;;;;;;17.74;100.00;100534.16;5053219;28;20029;-47
2023/07/28 01:35:58;;;;;;;0.00;0.00;;;;;;;17.73;100.00;100532.53;5053155;28;20048;-46
2023/07/28 01:38:24;;;;;;;0.00;0.00;;;;;;;17.75;100.00;100531.22;5052933;28;20387;-47
2023/07/28 01:40:49;;;;;;;0.00;0.00;;;;;;;17.77;100.00;100544.56;5052953;28;20087;-47
2023/07/28 01:43:15;;;;;;;0.00;0.00;;;;;;;17.73;100.00;100544.22;5052757;28;20056;-48
2023/07/28 01:45:40;;;;;;;0.00;0.00;;;;;;;17.74;100.00;100540.44;5052441;28;20033;-48
2023/07/28 01:48:06;;;;;;;0.00;0.00;;;;;;;17.73;100.00;100544.22;5052582;28;20106;-48
2023/07/28 01:50:31;;;;;;;0.00;0.00;;;;;;;17.72;100.00;100547.19;5052363;28;20036;-44
2023/07/28 01:52:56;;;;;;;0.00;0.00;;;;;;;17.74;100.00;100545.06;5052453;28;20028;-49
2023/07/28 01:55:22;;;;;;;0.00;0.00;;;;;;;17.73;100.00;100549.69;5052147;28;20055;-48
2023/07/28 01:58:01;;;;;;;0.00;0.00;;;;;;;17.70;100.00;100544.72;5052134;28;20045;-47
2023/07/28 02:00:26;;;;;;;0.00;0.00;;;;;;;17.71;100.00;100534.66;5052147;28;20037;-48
2023/07/28 02:02:52;;;;;;;0.00;0.00;;;;;;;17.71;100.00;100543.63;5052153;28;20444;-46
2023/07/28 02:05:18;;;;;;;0.00;0.00;;;;;;;17.70;100.00;100547.44;5049976;28;20033;-46
2023/07/28 02:07:44;;;;;;;0.00;0.00;;;;;;;17.72;100.00;100542.59;5052015;28;20111;-48
2023/07/28 02:10:10;;;;;;;0.00;0.00;;;;;;;17.73;100.00;100549.69;5050447;28;20467;-45
2023/07/28 02:12:36;;;;;;;0.00;0.00;;;;;;;17.74;100.00;100545.88;5052396;28;20025;-47
2023/07/28 02:15:01;;;;;;;0.00;0.00;;;;;;;17.73;100.00;100544.22;5051944;28;20025;-42
2023/07/28 02:17:26;;;;;;;0.00;0.00;;;;;;;17.70;100.00;100539.25;5051921;28;20029;-48
2023/07/28 02:19:52;;;;;;;0.00;0.00;;;;;;;17.70;100.00;100544.72;5051442;28;20037;-52
2023/07/28 02:22:17;;;;;;;0.00;0.00;;;;;;;17.70;100.00;100542.00;5051812;28;20498;-51
2023/07/28 02:24:42;;;;;;;0.00;0.00;;;;;;;17.71;100.00;100546.34;5051676;28;20025;-49
2023/07/28 02:27:08;;;;;;;0.05;0.00;;;;;;;17.69;100.00;100544.94;5051572;28;20033;-50
2023/07/28 02:29:33;;;;;;;0.00;0.00;;;;;;;17.68;100.00;100546.84;5051521;28;20063;-50
2023/07/28 02:31:59;;;;;;;0.03;0.03;;;;;;;17.68;100.00;100546.00;5051349;28;20032;-47
2023/07/28 02:34:24;;;;;;;0.00;0.00;;;;;;;17.67;100.00;100539.75;5051748;28;20036;-50
2023/07/28 02:36:49;;;;;;;0.00;0.00;;;;;;;17.68;100.00;100544.13;5051414;28;20025;-49
2023/07/28 02:39:15;;;;;;;0.00;0.00;;;;;;;17.66;100.00;100545.41;5052002;28;20048;-50
2023/07/28 02:41:40;;;;;;;0.00;0.00;;;;;;;17.65;100.00;100550.03;5051284;28;20467;-47
2023/07/28 02:44:05;;;;;;;0.00;0.00;;;;;;;17.67;100.00;100550.63;5051282;28;20033;-47
2023/07/28 02:46:31;;;;;;;0.00;0.00;;;;;;;17.68;100.00;100551.44;5051153;28;20104;-46
2023/07/28 02:48:56;;;;;;;0.00;0.00;;;;;;;17.64;100.00;100545.66;5051191;28;20486;-47
2023/07/28 02:51:21;;;;;;;0.00;0.00;;;;;;;17.63;100.00;100554.88;5050992;28;20029;-46
2023/07/28 02:53:47;;;;;;;0.00;0.00;;;;;;;17.63;100.00;100557.59;5051032;28;20021;-49
2023/07/28 02:56:12;;;;;;;0.00;0.00;;;;;;;17.63;100.00;100549.44;5050913;28;20021;-52
2023/07/28 02:58:38;;;;;;;0.00;0.00;;;;;;;17.64;100.00;100555.69;5049536;28;20361;-47
2023/07/28 03:01:03;;;;;;;0.10;0.10;;;;;;;17.65;100.00;100554.66;5050923;28;20110;-46
2023/07/28 03:03:29;;;;;;;0.00;0.00;;;;;;;17.65;100.00;100563.63;5050848;28;20048;-48
2023/07/28 03:05:54;;;;;;;0.00;0.00;;;;;;;17.65;100.00;100563.63;5050805;28;20021;-48
2023/07/28 03:08:20;;;;;;;0.00;0.00;;;;;;;17.64;100.00;100567.44;5050787;28;20027;-46
2023/07/28 03:10:45;;;;;;;0.00;0.00;;;;;;;17.68;100.00;100568.59;5049418;28;20029;-46
2023/07/28 03:13:11;;;;;;;0.00;0.00;;;;;;;17.66;100.00;100562.56;5051098;28;20028;-46
2023/07/28 03:15:36;;;;;;;0.00;0.00;;;;;;;17.68;100.00;100568.59;5032812;28;20124;-43
2023/07/28 03:18:01;;;;;;;0.00;0.00;;;;;;;17.70;100.00;100569.22;5049801;28;20028;-48
2023/07/28 03:20:27;;;;;;;0.00;0.00;;;;;;;17.69;100.00;100562.13;5050531;28;20033;-49
2023/07/28 03:22:54;;;;;;;0.00;0.00;;;;;;;17.68;100.00;100567.78;5050933;28;20021;-46
2023/07/28 03:25:20;;;;;;;0.00;0.00;;;;;;;17.68;100.00;100573.22;5050777;28;20017;-48
2023/07/28 03:27:45;;;;;;;0.00;0.00;;;;;;;17.70;100.00;100571.09;5049548;28;20075;-48
2023/07/28 03:30:10;;;;;;;0.00;0.00;;;;;;;17.69;100.00;100573.00;5050664;28;20108;-45
2023/07/28 03:32:37;;;;;;;0.00;0.00;;;;;;;17.70;100.00;100573.81;5051029;28;20268;-45
2023/07/28 03:35:04;;;;;;;0.00;0.00;;;;;;;17.68;100.00;100574.06;5050744;28;20035;-46
2023/07/28 03:37:30;;;;;;;;;;;;;;;17.69;100.00;100581.16;5051290;28;20024;-49
2023/07/28 03:39:55;;;;;;;0.00;0.00;;;;;;;17.68;100.00;100579.50;5050421;28;20138;-47
2023/07/28 03:42:21;;;;;;;0.00;0.00;;;;;;;17.68;100.00;100584.13;5050442;28;20100;-49
2023/07/28 03:44:46;;;;;;;0.00;0.00;;;;;;;17.70;100.00;100587.44;5050772;28;20028;-49
2023/07/28 03:47:11;;;;;;;0.00;0.00;;;;;;;17.73;100.00;100590.50;5050289;28;20080;-47
2023/07/28 03:49:37;;;;;;;0.00;0.00;;;;;;;17.71;100.00;100592.63;5050590;28;20383;-47
2023/07/28 03:52:02;;;;;;;0.00;0.00;;;;;;;17.69;100.00;100589.34;5050547;28;20083;-45
2023/07/28 03:54:28;;;;;;;0.00;0.00;;;;;;;17.70;100.00;100588.25;5050406;28;20025;-43
2023/07/28 03:56:53;;;;;;;0.00;0.00;;;;;;;17.70;100.00;100593.69;5049840;28;20541;-47
2023/07/28 03:59:18;;;;;;;0.00;0.00;;;;;;;17.73;100.00;100593.22;5050457;28;20028;-49
2023/07/28 04:01:44;;;;;;;0.00;0.00;;;;;;;17.73;100.00;100586.97;5050085;28;20064;-46
2023/07/28 04:04:09;;;;;;;0.00;0.00;;;;;;;17.75;100.00;100588.38;5050318;28;20102;-47
2023/07/28 04:06:45;;;;;;;0.00;0.00;;;;;;;17.71;100.00;100589.91;5050394;28;20029;-50
2023/07/28 04:09:12;;;;;;;0.00;0.00;;;;;;;17.72;100.00;100588.84;5050202;28;20060;-49
2023/07/28 04:11:37;;;;;;;0.00;0.00;;;;;;;17.73;100.00;100585.06;5050050;28;20086;-47
2023/07/28 04:14:03;;;;;;;0.00;0.00;;;;;;;17.73;100.00;100581.50;5050061;28;20028;-46
2023/07/28 04:16:29;;;;;;;0.25;0.00;;;;;;;17.75;100.00;100582.13;5049974;28;20071;-45
2023/07/28 04:18:54;;;;;;;0.00;0.00;;;;;;;17.77;100.00;100582.69;5050151;28;20107;-48
2023/07/28 04:21:20;;;;;;;0.00;0.00;;;;;;;17.78;100.00;100587.09;5049920;28;20033;-49
2023/07/28 04:23:45;;;;;;;0.00;0.00;;;;;;;17.80;100.00;100585.00;5050095;28;20029;-46
2023/07/28 04:26:11;;;;;;;0.00;0.00;;;;;;;17.78;100.00;100582.47;5050158;28;20120;-47
2023/07/28 04:28:36;;;;;;;0.00;0.00;;;;;;;17.81;100.00;100591.25;5051564;28;20100;-49
2023/07/28 04:31:01;;;;;;;0.00;0.00;;;;;;;17.79;100.00;100588.75;5053819;28;20167;-48
2023/07/28 04:33:27;;;;;;;0.00;0.00;;;;;;;17.81;100.00;100588.53;5053377;28;20063;-46
2023/07/28 04:35:52;;;;;;;0.00;0.00;;;;;;;17.80;100.00;100590.44;5053668;28;20033;-50
2023/07/28 04:38:18;;;;;;;0.00;0.00;;;;;;;17.80;100.00;100586.88;5053478;28;20099;-47
2023/07/28 04:40:44;;;;;;;0.00;0.00;;;;;;;17.84;100.00;100593.50;5053643;28;20029;-48
2023/07/28 04:43:09;;;;;;;0.00;0.00;;;;;;;17.85;100.00;100589.72;5053474;28;20703;-46
2023/07/28 04:45:35;;;;;;;0.00;0.00;;;;;;;17.82;100.00;100596.44;5053510;28;20029;-45
2023/07/28 04:48:00;;;;;;;0.00;0.00;;;;;;;17.80;100.00;100589.59;5053418;28;20427;-47
2023/07/28 04:50:25;;;;;;;0.00;0.00;;;;;;;17.83;100.00;100589.97;5053518;28;20029;-49
2023/07/28 04:52:51;;;;;;;0.00;0.00;;;;;;;17.87;100.00;100584.84;5054193;28;20031;-46
2023/07/28 04:55:16;;;;;;;0.00;0.00;;;;;;;17.89;100.00;100591.72;5053518;28;20104;-45
2023/07/28 04:57:42;;;;;;;0.00;0.00;;;;;;;17.87;100.00;100590.31;5053036;28;20474;-45
2023/07/28 05:00:08;;;;;;;0.00;0.00;;;;;;;17.88;100.00;100589.25;5053416;28;20045;-45
2023/07/28 05:02:33;;;;;;;0.00;0.00;;;;;;;17.90;100.00;100581.66;5053045;28;20029;-44
2023/07/28 05:04:59;;;;;;;0.05;0.00;;;;;;;17.88;100.00;100595.53;5053224;28;20110;-45
2023/07/28 05:07:24;;;;;;;0.00;0.00;;;;;;;17.89;100.00;100585.47;5053336;28;20113;-50
2023/07/28 05:09:50;;;;;;;0.00;0.00;;;;;;;17.90;100.00;100584.38;5053303;28;20025;-50
2023/07/28 05:12:15;;;;;;;0.00;0.00;;;;;;;17.96;100.00;100594.34;5051513;28;20029;-47
2023/07/28 05:14:40;;;;;;;0.00;0.00;;;;;;;17.98;100.00;100595.78;5052903;28;20029;-46
2023/07/28 05:17:06;;;;;;;0.00;0.00;;;;;;;17.98;100.00;100593.03;5052857;28;20037;-44
2023/07/28 05:19:31;;;;;;;0.00;0.00;;;;;;;18.02;100.00;100598.00;5052646;28;20482;-47
2023/07/28 05:21:57;;;;;;;0.00;0.00;;;;;;;17.95;100.00;100590.78;5053152;28;20044;-49
2023/07/28 05:24:22;;;;;;;0.25;0.00;;;;;;;17.98;100.00;100597.63;5053658;28;20029;-45
2023/07/28 05:26:47;;;;;;;0.00;0.00;;;;;;;18.04;100.00;100602.16;5055573;28;20072;-45
2023/07/28 05:29:13;;;;;;;0.00;0.00;;;;;;;18.03;100.00;100602.38;5055461;28;20586;-46
2023/07/28 05:31:38;;;;;;;0.00;0.00;;;;;;;18.05;100.00;100601.06;5055853;28;20033;-45
2023/07/28 05:34:04;;;;;;;0.00;0.00;;;;;;;18.07;100.00;100593.50;5054109;28;20021;-45
2023/07/28 05:36:29;;;;;;;0.00;0.00;;;;;;;18.09;100.00;100604.16;5052777;28;20104;-44
2023/07/28 05:38:56;;;;;;;0.00;0.00;;;;;;;18.11;100.00;100599.28;5053632;28;20052;-46
2023/07/28 05:41:22;;;;;;;0.00;0.00;;;;;;;18.06;100.00;100608.19;5052676;28;20028;-46
2023/07/28 05:43:48;;;;;;;0.00;0.00;;;;;;;18.08;100.00;100611.50;5052938;28;20079;-48
2023/07/28 05:46:13;;;;;;;0.00;0.00;;;;;;;18.04;100.00;100609.50;5052390;28;20021;-46
2023/07/28 05:48:39;;;;;;;0.00;0.00;;;;;;;18.03;100.00;100619.53;5052518;28;20021;-46
2023/07/28 05:51:04;;;;;;;0.00;0.00;;;;;;;18.02;100.00;100612.44;5050970;28;20028;-46
2023/07/28 05:53:30;;;;;;;0.00;0.00;;;;;;;18.07;100.00;100607.13;5052320;28;20029;-46
2023/07/28 05:55:55;;;;;;;0.00;0.00;;;;;;;18.09;100.00;100615.91;5052275;28;20104;-49
2023/07/28 05:58:20;;;;;;;0.00;0.00;;;;;;;18.03;100.00;100614.09;5052051;28;20049;-47
2023/07/28 06:00:46;;;;;;;0.08;0.00;;;;;;;18.02;100.00;100619.78;5052552;28;20029;-50
2023/07/28 06:03:14;;;;;;;0.00;0.00;;;;;;;18.01;100.00;100623.56;5051807;28;20029;-47
2023/07/28 06:05:42;;;;;;;0.00;0.00;;;;;;;18.02;100.00;100622.53;5052204;28;20028;-46
2023/07/28 06:08:08;;;;;;;0.00;0.00;;;;;;;18.03;100.00;100622.25;5051824;28;20439;-48
2023/07/28 06:10:34;;;;;;;0.00;0.00;;;;;;;18.03;100.00;100627.72;5051848;28;20151;-47
2023/07/28 06:13:00;;;;;;;0.00;0.00;;;;;;;18.08;100.00;100630.56;5051721;28;20029;-46
2023/07/28 06:15:25;;;;;;;0.00;0.00;;;;;;;18.12;100.00;100623.59;5051555;28;20029;-49
2023/07/28 06:17:51;;;;;;;0.00;0.00;;;;;;;18.15;100.00;100633.19;5051693;28;20226;-45
2023/07/28 06:20:16;;;;;;;0.00;0.00;;;;;;;18.16;100.00;100640.28;5051774;28;20029;-46
2023/07/28 06:22:42;;;;;;;0.00;0.00;;;;;;;18.11;100.00;100632.81;5051724;28;20497;-49
2023/07/28 06:25:07;;;;;;;0.00;0.00;;;;;;;18.15;100.00;100634.00;5051753;28;20027;-48
2023/07/28 06:27:33;;;;;;;0.00;0.00;;;;;;;18.13;100.00;100641.56;5051800;28;20025;-46
2023/07/28 06:29:58;;;;;;;0.00;0.00;;;;;;;18.21;100.00;100643.94;5051583;28;20083;-45
2023/07/28 06:32:23;;;;;;;0.00;0.00;;;;;;;18.21;100.00;100649.38;5051544;28;20107;-45
2023/07/28 06:34:49;;;;;;;0.00;0.00;;;;;;;18.16;100.00;100646.53;5051505;28;20021;-47
2023/07/28 06:37:15;;;;;;;0.00;0.00;;;;;;;18.21;100.00;100643.09;5051488;28;20075;-46
2023/07/28 06:39:40;;;;;;;0.00;0.00;;;;;;;18.23;100.00;100648.34;5051308;28;20444;-47
2023/07/28 06:42:06;;;;;;;0.00;0.00;;;;;;;18.28;100.00;100648.44;5051407;28;20037;-50
2023/07/28 06:44:31;;;;;;;0.00;0.00;;;;;;;18.25;100.00;100643.47;5051130;28;20101;-47
2023/07/28 06:46:57;;;;;;;0.00;0.00;;;;;;;18.27;100.00;100657.66;5049973;28;20051;-44
2023/07/28 06:49:22;;;;;;;0.00;0.00;;;;;;;18.31;100.00;100658.88;5049841;28;20032;-46
2023/07/28 06:51:48;;;;;;;0.00;0.00;;;;;;;18.35;100.00;100654.59;5050820;28;20029;-47
2023/07/28 06:54:13;;;;;;;0.00;0.00;;;;;;;18.39;100.00;100659.31;5050977;28;20457;-45
2023/07/28 06:56:39;;;;;;;0.00;0.00;;;;;;;18.38;100.00;100654.97;5050965;28;20034;-46
2023/07/28 06:59:06;;;;;;;0.00;0.00;;;;;;;18.39;100.00;100653.88;5049760;28;20021;-48
2023/07/28 07:01:32;;;;;;;0.00;0.00;;;;;;;18.39;100.00;100651.16;5051492;28;20029;-45
2023/07/28 07:03:57;;;;;;;0.00;0.00;;;;;;;18.43;100.00;100656.94;5051252;28;20036;-45
2023/07/28 07:06:22;;;;;;;0.00;0.00;;;;;;;18.46;100.00;100661.94;5051057;28;20020;-46
2023/07/28 07:08:48;;;;;;;0.00;0.00;;;;;;;18.42;100.00;100658.03;5051092;28;20102;-49
2023/07/28 07:11:13;;;;;;;0.00;0.00;;;;;;;18.43;100.00;100663.25;5051134;28;20025;-48
2023/07/28 07:13:39;;;;;;;0.00;0.00;;;;;;;18.50;100.00;100657.66;5051092;28;20165;-48
2023/07/28 07:16:06;;;;;;;0.00;0.00;;;;;;;18.54;100.00;100658.84;5051381;28;20056;-45
2023/07/28 07:18:31;;;;;;;0.00;0.00;;;;;;;18.54;100.00;100658.84;5051093;28;20029;-45
2023/07/28 07:21:01;;;;;;;0.00;0.00;;;;;;;18.59;100.00;100655.41;5050681;28;20033;-49
2023/07/28 07:23:27;;;;;;;0.00;0.00;;;;;;;18.62;100.00;100666.66;5051058;28;20021;-47
2023/07/28 07:25:52;;;;;;;0.00;0.00;;;;;;;18.72;100.00;100663.31;5051178;28;20490;-47
2023/07/28 07:28:18;;;;;;;0.00;0.00;;;;;;;18.99;100.00;100665.53;5050765;28;20024;-45
2023/07/28 07:30:43;;;;;;;0.00;0.00;;;;;;;19.26;100.00;100663.06;5051129;28;20471;-48
2023/07/28 07:33:08;;;;;;;0.00;0.00;;;;;;;19.58;100.00;100652.44;5050997;28;20021;-44
2023/07/28 07:35:37;;;;;;;0.00;0.00;;;;;;;19.58;100.00;100632.50;5050822;28;20103;-45
2023/07/28 07:38:08;;;;;;;0.00;0.00;;;;;;;19.62;100.00;100626.31;5050603;28;20033;-47
2023/07/28 07:40:34;;;;;;;0.00;0.00;;;;;;;19.69;100.00;100620.72;5049576;28;20125;-46
2023/07/28 07:42:59;;;;;;;0.00;0.00;;;;;;;19.82;100.00;100619.56;5050972;28;20104;-46
2023/07/28 07:45:24;;;;;;;0.00;0.00;;;;;;;19.78;100.00;100624.69;5050694;28;20033;-44
2023/07/28 07:47:50;;;;;;;0.00;0.00;;;;;;;19.89;100.00;100634.72;5049887;28;20202;-45
2023/07/28 07:50:15;;;;;;;0.00;0.00;;;;;;;20.15;100.00;100632.38;5050468;28;20383;-48
2023/07/28 07:52:40;;;;;;;0.00;0.00;;;;;;;20.36;100.00;100628.03;5050027;28;20021;-44
2023/07/28 07:55:06;;;;;;;0.10;0.00;;;;;;;20.23;100.00;100626.47;5030464;28;20030;-47
2023/07/28 07:57:32;;;;;;;0.00;0.00;;;;;;;20.24;100.00;100633.59;5029921;28;20625;-45
2023/07/28 07:59:58;;;;;;;0.00;0.00;;;;;;;20.10;100.00;100629.56;5030711;28;20025;-48
2023/07/28 08:02:23;;;;;;;0.10;0.00;;;;;;;20.03;100.00;100631.63;5030264;28;20066;-45
2023/07/28 08:04:48;;;;;;;0.00;0.00;;;;;;;19.86;100.00;100637.94;5034019;28;20064;-47
2023/07/28 08:07:16;;;;;;;0.00;0.00;;;;;;;19.87;100.00;100636.84;5032664;28;20025;-47
2023/07/28 08:09:41;;;;;;;0.00;0.00;;;;;;;20.03;100.00;100648.03;5034287;28;20026;-47
2023/07/28 08:12:07;;;;;;;0.00;0.00;;;;;;;20.10;100.00;100644.03;5034521;28;20423;-46
2023/07/28 08:14:33;;;;;;;0.00;0.00;;;;;;;20.42;100.00;100639.84;5034269;28;20092;-48
2023/07/28 08:16:58;;;;;;;0.00;0.00;;;;;;;20.54;100.00;100638.69;5034502;28;20060;-47
2023/07/28 08:19:24;;;;;;;0.00;0.00;;;;;;;20.44;100.00;100630.31;5034357;28;20384;-48
2023/07/28 08:21:49;;;;;;;0.00;0.00;;;;;;;20.45;100.00;100640.16;5034058;28;20040;-47
2023/07/28 08:24:15;;;;;;;0.00;0.00;;;;;;;20.36;100.00;100642.53;5033815;28;20084;-47
2023/07/28 08:26:41;;;;;;;0.00;0.00;;;;;;;20.28;100.00;100634.75;5033915;28;20041;-46
2023/07/28 08:29:06;;;;;;;0.00;0.00;;;;;;;20.40;100.00;100640.09;5034025;28;20124;-46
2023/07/28 08:31:31;;;;;;;0.00;0.00;;;;;;;20.57;100.00;100637.38;5033843;28;20156;-47
2023/07/28 08:33:57;;;;;;;0.00;0.00;;;;;;;20.81;100.00;100637.94;5034037;28;20029;-45
2023/07/28 08:36:22;;;;;;;0.00;0.00;;;;;;;20.75;100.00;100631.59;5033932;28;20068;-46
2023/07/28 08:38:48;;;;;;;0.00;0.00;;;;;;;20.77;100.00;100634.91;5033588;28;20679;-44
2023/07/28 08:41:14;;;;;;;0.00;0.00;;;;;;;20.96;100.00;100626.38;5033620;28;20112;-45
2023/07/28 08:43:40;;;;;;;0.00;0.00;;;;;;;20.92;100.00;100633.41;5033754;28;20465;-47
2023/07/28 08:46:05;;;;;;;0.00;0.00;;;;;;;20.66;100.00;100646.78;5032155;28;20108;-47
2023/07/28 08:48:31;;;;;;;0.00;0.00;;;;;;;20.44;100.00;100649.47;5033351;28;20025;-48
2023/07/28 08:50:56;;;;;;;0.00;0.00;;;;;;;20.34;100.00;100655.59;5033067;28;20026;-46
2023/07/28 08:53:22;;;;;;;0.00;0.00;;;;;;;20.35;100.00;100654.53;5033104;28;20056;-44
2023/07/28 08:55:47;;;;;;;0.00;0.00;;;;;;;20.46;100.00;100652.78;5033021;28;20501;-42
2023/07/28 08:58:18;;;;;;;0.10;0.00;;;;;;;20.48;100.00;100655.25;5031314;28;20049;-49
2023/07/28 09:00:46;;;;;;;0.00;0.00;;;;;;;20.28;100.00;100666.72;5033294;28;20487;-46
2023/07/28 09:03:12;;;;;;;0.00;0.00;;;;;;;20.04;100.00;100666.09;5033160;28;20531;-46
2023/07/28 09:05:40;;;;;;;0.32;0.10;;;;;;;20.04;100.00;100672.38;5032304;28;20109;-46
2023/07/28 09:08:06;;;;;;;0.00;0.00;;;;;;;20.08;100.00;100676.25;5032401;28;20087;-44
2023/07/28 09:10:42;;;;;;;0.00;0.00;;;;;;;19.99;100.00;100675.03;5031698;28;20029;-43
2023/07/28 09:13:14;;;;;;;0.00;0.00;;;;;;;20.04;100.00;100677.84;5033623;28;20483;-46
2023/07/28 09:15:40;;;;;;;0.00;0.00;;;;;;;20.07;100.00;100681.97;5031043;28;20037;-44
2023/07/28 09:18:10;;;;;;;0.00;0.00;;;;;;;19.97;100.00;100679.09;5033245;28;20472;-45
2023/07/28 09:20:37;;;;;;;0.00;0.00;;;;;;;19.86;100.00;100681.63;5033526;28;20165;-48
2023/07/28 09:23:03;;;;;;;0.00;0.00;;;;;;;19.77;100.00;100682.28;5032868;28;20076;-44
2023/07/28 09:25:29;;;;;;;0.00;0.00;;;;;;;19.85;100.00;100679.13;5031827;28;20600;-45
2023/07/28 09:27:55;;;;;;;0.00;0.00;;;;;;;19.91;100.00;100694.56;5031726;28;20100;-46
2023/07/28 09:30:21;;;;;;;0.00;0.00;;;;;;;19.76;100.00;100686.91;5032808;28;20444;-46
2023/07/28 09:32:52;;;;;;;0.00;0.00;;;;;;;19.82;100.00;100702.31;5032522;28;20112;-46
2023/07/28 09:35:18;;;;;;;0.00;0.00;;;;;;;19.91;100.00;100695.38;5033075;28;20052;-45
2023/07/28 09:37:47;;;;;;;0.00;0.00;;;;;;;20.02;100.00;100701.00;5031435;28;20101;-46
2023/07/28 09:40:14;;;;;;;0.00;0.00;;;;;;;20.07;100.00;100699.19;5032690;28;20069;-45
2023/07/28 09:42:40;;;;;;;0.00;0.00;;;;;;;19.91;100.00;100694.56;5032696;28;20076;-46
2023/07/28 09:45:07;;;;;;;0.00;0.00;;;;;;;20.01;100.00;100699.34;5032405;28;20104;-45
2023/07/28 09:47:35;;;;;;;0.00;0.00;;;;;;;19.94;100.00;100702.25;5032427;28;20348;-44
2023/07/28 09:50:03;;;;;;;0.00;0.00;;;;;;;19.94;100.00;100697.63;5032519;28;20056;-45
2023/07/28 09:52:34;;;;;;;0.00;0.00;;;;;;;19.96;100.00;100702.84;5031282;28;20285;-44
2023/07/28 09:55:00;;;;;;;0.00;0.00;;;;;;;19.94;100.00;100700.34;5032004;28;20035;-46
2023/07/28 09:57:27;;;;;;;0.00;0.00;;;;;;;20.05;100.00;100705.97;5031829;28;20060;-44
2023/07/28 09:59:53;;;;;;;;;;;;;;;20.20;100.00;100692.56;5033950;28;20044;-44
2023/07/28 10:02:18;;;;;;;0.00;0.00;;;;;;;20.46;100.00;100701.13;5033153;28;19909;-43
2023/07/28 10:04:44;;;;;;;0.00;0.00;;;;;;;20.80;100.00;100680.88;5031154;28;20029;-45
2023/07/28 10:07:10;;;;;;;0.00;0.00;;;;;;;20.96;100.00;100683.81;5032240;28;20719;-44
2023/07/28 10:09:37;;;;;;;0.00;0.00;;;;;;;21.34;100.00;100673.84;5030695;28;20476;-44
2023/07/28 10:12:03;;;;;;;0.00;0.00;;;;;;;21.97;100.00;100672.25;5030617;28;20057;-45
2023/07/28 10:14:33;;;;;;;0.00;0.00;;;;;;;22.42;100.00;100675.63;5032070;28;20033;-44
2023/07/28 10:16:58;;;;;;;0.00;0.00;;;;;;;22.96;100.00;100658.84;5031688;28;20163;-45
2023/07/28 10:19:25;;;;;;;0.00;0.00;;;;;;;23.25;100.00;100653.78;5031358;28;20053;-46
2023/07/28 10:21:59;;;;;;;0.00;0.00;;;;;;;22.79;100.00;100661.81;5031703;28;20064;-45
2023/07/28 10:24:54;;;;;;;0.00;0.00;;;;;;;22.76;100.00;100659.63;5031620;28;20437;-44
2023/07/28 10:27:36;;;;;;;0.00;0.00;;;;;;;22.93;100.00;100664.88;5031309;28;20021;-45
2023/07/28 10:30:11;;;;;;;0.00;0.00;;;;;;;22.71;100.00;100662.34;5030311;28;20561;-48
2023/07/28 10:32:48;;;;;;;0.00;0.00;;;;;;;22.48;100.00;100658.91;5031290;28;20361;-49
2023/07/28 10:35:16;;;;;;;0.00;0.00;;;;;;;22.80;100.00;100674.44;5031512;28;20059;-47
2023/07/28 10:37:45;;;;;;;0.00;0.00;;;;;;;22.95;100.00;100666.25;5031305;28;20041;-48
2023/07/28 10:40:31;;;;;;;0.00;0.00;;;;;;;23.44;100.00;100662.31;5031299;28;20041;-46
2023/07/28 10:42:57;;;;;;;0.00;0.00;;;;;;;23.41;100.00;100663.69;5031477;28;20025;-49
2023/07/28 10:45:25;;;;;;;0.23;0.00;;;;;;;23.49;100.00;100661.53;5031402;28;20057;-46
2023/07/28 10:47:52;;;;;;;0.00;0.00;;;;;;;23.25;100.00;100653.78;5031126;28;20491;-47
2023/07/28 10:50:17;;;;;;;;;;;;;;;23.15;100.00;100664.72;5031427;28;20025;-47
2023/07/28 10:52:44;;;;;;;0.00;0.00;;;;;;;22.68;100.00;100663.69;5031043;28;19913;-46
2023/07/28 10:55:18;;;;;;;0.00;0.00;;;;;;;22.20;100.00;100667.53;5031125;28;20080;-46
2023/07/28 10:57:44;;;;;;;0.00;0.00;;;;;;;22.15;100.00;100673.75;5029689;28;20041;-46
2023/07/28 11:00:12;;;;;;;0.00;0.00;;;;;;;22.11;100.00;100684.41;5030977;28;20029;-44
2023/07/28 11:02:57;;;;;;;0.00;0.00;;;;;;;22.25;100.00;100697.69;5031039;28;20032;-48
2023/07/28 11:05:30;;;;;;;0.00;0.00;;;;;;;22.32;100.00;100690.06;5031136;28;20372;-46
2023/07/28 11:08:00;;;;;;;0.00;0.00;;;;;;;21.82;100.00;100699.53;5031002;28;20025;-47
2023/07/28 11:10:31;;;;;;;0.00;0.00;;;;;;;21.48;100.00;100697.84;5030717;28;20021;-48
2023/07/28 11:13:01;;;;;;;0.00;0.00;;;;;;;21.59;100.00;100698.78;5030747;28;20044;-44